Birkenshaw, United Kingdom
Current Conditions -  °F | °C
As of 3:20 AM on Tuesday 23 Dec 2014 (Local Time) from EGNM Reporting Station
Rain Showers Rain Showers  
Wind Chill: 11°   Ceiling: 1600
Heat Index: 11°   Visibility: 6mi
Dew Point:   Wind: 23mph
Humidity: 82%   Direction: 240°WSW
Pressure: 29.74"   Gusts: 41mph
Location:  53.75°N, 1.66°W
Report Text: EGNM 230320Z 24020G36KT 210V270 9999 -SHRA BKN016 11/08 Q1007
Loading
Personal Weather Stations






























Interactive Weather Map New forecast layout! Learn more

10-Day Weather Forecast

Advertisements
Track Severe Weather on mobile